Dades meteomassalio
Diari Summary for Setembre 16, 2017 Units:  English    Metric   Both
« Previous Day
Next Day »
Diari Semanal Mensual Anual Personalitzat
  Maxima: Minima: Mijana:
Temperatura: TemperatureC °F 5.0 °F 12.7 °F
Rosada: DewpointC °F 1.8 °F 5.3 °F
Humitat: Humidity % 40 % 62 %
Velocitat del vent: WindSpeedKMH mph 0.0 mph 14.6 mph
Racha vent: WindSpeedGustKMH mph - -
Vent:- - SSW
Pressio: PressurehPa in 1016.5 in -
Pluja: 0.0 in    
Historical Graphs
 
 
Tabular Data for Setembre 16, 2017
Time Temperature Dew Point Pressure Wind Wind Speed Wind Gust Humidity Rainfall Rate (Hourly) solar Conditions
TemperatureC °F DewpointC °F PressurehPa in Calm     Humidity % HourlyPrecipMM in SolarRadiationWatts/m^2 W/m2 Conditions
00:04 10.0 °F 5.9 °F 1018.5 in South 11.1 mph 11.1 mph 76 % 0.0 in 0.0 W/m2 RA
00:09 10.0 °F 5.8 °F 1018.5 in SSW 18.5 mph 18.5 mph 75 % 0.0 in 0.0 W/m2 CLR
00:14 10.0 °F 5.8 °F 1018.5 in South 14.8 mph 14.8 mph 75 % 0.0 in 0.0 W/m2 CLR
00:19 10.0 °F 5.6 °F 1018.5 in SSW 18.5 mph 18.5 mph 74 % 0.0 in 0.0 W/m2 CLR
00:24 10.0 °F 5.6 °F 1018.5 in SW 16.7 mph 16.7 mph 74 % 0.0 in 0.0 W/m2 CLR
00:29 10.0 °F 5.4 °F 1018.5 in SSW 14.8 mph 14.8 mph 73 % 0.0 in 0.0 W/m2 CLR
00:34 10.0 °F 5.4 °F 1018.5 in SSW 14.8 mph 14.8 mph 73 % 0.0 in 0.0 W/m2 CLR
00:39 10.0 °F 5.2 °F 1018.5 in SW 17.7 mph 17.7 mph 72 % 0.0 in 0.0 W/m2 CLR
00:41 10.0 °F 5.2 °F 1018.5 in SW 18.5 mph 18.5 mph 72 % 0.0 in 0.0 W/m2 CLR
00:46 10.6 °F 5.7 °F 1018.5 in SSW 14.8 mph 14.8 mph 72 % 0.0 in 0.0 W/m2 CLR
00:51 10.6 °F 5.7 °F 1018.5 in SSW 16.7 mph 16.7 mph 72 % 0.0 in 0.0 W/m2 CLR
00:56 10.6 °F 5.7 °F 1018.5 in SSW 18.5 mph 18.5 mph 72 % 0.0 in 0.0 W/m2 CLR
01:01 10.0 °F 5.2 °F 1018.5 in South 5.6 mph 5.6 mph 72 % 0.0 in 0.0 W/m2 CLR
01:06 10.0 °F 5.4 °F 1018.5 in South 3.7 mph   73 % 0.0 in 0.0 W/m2 CLR
01:11 10.0 °F 5.6 °F 1018.5 in SE 5.6 mph 5.6 mph 74 % 0.0 in 0.0 W/m2 CLR
01:16 9.4 °F 5.2 °F 1018.5 in Calm     75 % 0.0 in 0.0 W/m2 CLR
01:21 9.4 °F 5.4 °F 1018.5 in SSE 1.9 mph   76 % 0.0 in 0.0 W/m2 CLR
01:26 9.4 °F 5.6 °F 1018.2 in Calm     77 % 0.0 in 0.0 W/m2 CLR
01:31 9.4 °F 5.8 °F 1018.2 in Calm     78 % 0.0 in 0.0 W/m2 CLR
01:36 9.4 °F 5.8 °F 1018.2 in Calm     78 % 0.0 in 0.0 W/m2 CLR
01:41 8.9 °F 5.3 °F 1018.2 in SSE 3.7 mph 3.7 mph 78 % 0.0 in 0.0 W/m2 CLR
01:46 8.3 °F 4.7 °F 1018.2 in SSE 5.6 mph 5.6 mph 78 % 0.0 in 0.0 W/m2 CLR
01:51 8.3 °F 4.6 °F 1018.2 in SSW 6.4 mph 6.4 mph 77 % 0.0 in 0.0 W/m2 CLR
01:56 8.3 °F 4.3 °F 1018.2 in SSW 12.9 mph 12.9 mph 76 % 0.0 in 0.0 W/m2 CLR
02:01 8.3 °F 4.2 °F 1018.2 in South 16.7 mph 16.7 mph 75 % 0.0 in 0.0 W/m2 CLR
02:02 8.3 °F 4.2 °F 1018.2 in SSW 16.7 mph 16.7 mph 75 % 0.0 in 0.0 W/m2 CLR
02:07 8.3 °F 4.2 °F 1018.2 in SSW 13.0 mph 13.0 mph 75 % 0.0 in 0.0 W/m2 CLR
02:12 8.3 °F 4.2 °F 1018.2 in SSW 16.7 mph 16.7 mph 75 % 0.0 in 0.0 W/m2 CLR
02:17 8.3 °F 3.9 °F 1018.2 in SSW 13.0 mph 13.0 mph 74 % 0.0 in 0.0 W/m2 CLR
02:22 8.9 °F 4.5 °F 1018.2 in SSW 14.8 mph 14.8 mph 74 % 0.0 in 0.0 W/m2 CLR
02:23 8.9 °F 4.5 °F 1018.2 in SSW 14.8 mph 14.8 mph 74 % 0.0 in 0.0 W/m2 CLR
02:28 9.4 °F 5.1 °F 1018.2 in SSW 14.8 mph 14.8 mph 74 % 0.0 in 0.0 W/m2 CLR
02:33 9.4 °F 5.1 °F 1018.2 in SSW 16.7 mph 16.7 mph 74 % 0.0 in 0.0 W/m2 CLR
02:38 9.4 °F 5.2 °F 1018.2 in SSW 14.5 mph 14.5 mph 75 % 0.0 in 0.0 W/m2 CLR
02:43 9.4 °F 5.1 °F 1018.2 in SW 18.5 mph 18.5 mph 74 % 0.0 in 0.0 W/m2 CLR
02:48 9.4 °F 5.1 °F 1018.2 in South 14.5 mph 14.5 mph 74 % 0.0 in 0.0 W/m2 CLR
02:53 9.4 °F 5.2 °F 1018.2 in SSW 18.5 mph 18.5 mph 75 % 0.0 in 0.0 W/m2 CLR
02:58 9.4 °F 5.1 °F 1018.2 in South 16.7 mph 16.7 mph 74 % 0.0 in 0.0 W/m2 CLR
03:03 9.4 °F 5.1 °F 1018.2 in SSW 16.7 mph 16.7 mph 74 % 0.0 in 0.0 W/m2 CLR
03:08 9.4 °F 5.1 °F 1018.2 in SSW 22.2 mph 22.2 mph 74 % 0.0 in 0.0 W/m2 CLR
03:13 9.4 °F 5.1 °F 1018.2 in SSW 16.7 mph 16.7 mph 74 % 0.0 in 0.0 W/m2 CLR
03:18 9.4 °F 5.1 °F 1018.2 in SSW 8.0 mph 8.0 mph 74 % 0.0 in 0.0 W/m2 CLR
03:23 8.9 °F 4.7 °F 1018.2 in SSW 14.8 mph 14.8 mph 75 % 0.0 in 0.0 W/m2 CLR
03:28 8.9 °F 4.7 °F 1018.2 in South 9.3 mph 9.3 mph 75 % 0.0 in 0.0 W/m2 CLR
03:33 8.9 °F 4.7 °F 1017.8 in SSW 9.3 mph 9.3 mph 75 % 0.0 in 0.0 W/m2 CLR
03:38 8.9 °F 4.9 °F 1017.8 in SSE 11.1 mph 11.1 mph 76 % 0.0 in 0.0 W/m2 CLR
03:43 8.9 °F 4.9 °F 1017.8 in SSW 7.4 mph 7.4 mph 76 % 0.0 in 0.0 W/m2 CLR
03:48 8.9 °F 4.9 °F 1017.8 in South 9.7 mph 9.7 mph 76 % 0.0 in 0.0 W/m2 CLR
03:58 8.3 °F 4.3 °F 1017.8 in South 9.3 mph 9.3 mph 76 % 0.0 in 0.0 W/m2 CLR
04:03 8.9 °F 4.9 °F 1017.8 in South 18.5 mph 18.5 mph 76 % 0.0 in 0.0 W/m2 CLR
04:08 8.9 °F 4.9 °F 1017.8 in SSE 11.1 mph 11.1 mph 76 % 0.0 in 0.0 W/m2 CLR
04:13 8.9 °F 4.9 °F 1017.8 in SW 16.7 mph 16.7 mph 76 % 0.0 in 0.0 W/m2 CLR
04:18 8.3 °F 4.3 °F 1017.8 in South 18.5 mph 18.5 mph 76 % 0.0 in 0.0 W/m2 CLR
04:23 8.3 °F 4.3 °F 1017.5 in South 14.8 mph 14.8 mph 76 % 0.0 in 0.0 W/m2 CLR
04:28 8.9 °F 4.7 °F 1017.5 in South 16.7 mph 16.7 mph 75 % 0.0 in 0.0 W/m2 CLR
04:33 8.9 °F 4.7 °F 1017.5 in South 16.7 mph 16.7 mph 75 % 0.0 in 0.0 W/m2 CLR
04:38 8.9 °F 4.9 °F 1017.5 in SSW 18.5 mph 18.5 mph 76 % 0.0 in 0.0 W/m2 CLR
04:43 8.3 °F 4.3 °F 1017.5 in SSE 16.7 mph 16.7 mph 76 % 0.0 in 0.0 W/m2 CLR
04:48 8.3 °F 4.3 °F 1017.5 in South 13.0 mph 13.0 mph 76 % 0.0 in 0.0 W/m2 CLR
04:53 8.3 °F 4.3 °F 1017.5 in South 16.7 mph 16.7 mph 76 % 0.0 in 0.0 W/m2 CLR
04:58 8.3 °F 4.3 °F 1017.5 in SSW 16.7 mph 16.7 mph 76 % 0.0 in 0.0 W/m2 CLR
05:03 8.9 °F 5.1 °F 1017.5 in SSE 16.7 mph 16.7 mph 77 % 0.0 in 0.0 W/m2 CLR
05:08 8.9 °F 5.3 °F 1017.8 in SSE 11.1 mph 11.1 mph 78 % 0.0 in 0.0 W/m2 CLR
05:13 8.9 °F 5.4 °F 1017.8 in SE 9.3 mph 9.3 mph 79 % 0.0 in 0.0 W/m2 CLR
05:18 8.9 °F 5.6 °F 1017.8 in SSE 16.7 mph 16.7 mph 80 % 0.0 in 0.0 W/m2 CLR
05:21 8.9 °F 5.6 °F 1017.8 in SSE 18.5 mph 18.5 mph 80 % 0.0 in 0.0 W/m2 CLR
05:26 8.3 °F 5.1 °F 1017.8 in SSE 7.4 mph 7.4 mph 80 % 0.0 in 0.0 W/m2 CLR
05:31 8.3 °F 5.1 °F 1017.8 in SSE 7.4 mph 7.4 mph 80 % 0.0 in 0.0 W/m2 CLR
05:36 7.8 °F 4.6 °F 1017.8 in South 9.3 mph 9.3 mph 80 % 0.0 in 0.0 W/m2 CLR
05:41 7.2 °F 4.0 °F 1017.8 in SSE 11.1 mph 11.1 mph 80 % 0.0 in 0.0 W/m2 CLR
05:46 7.2 °F 4.0 °F 1017.8 in SSE 5.6 mph 5.6 mph 80 % 0.0 in 0.0 W/m2 CLR
05:51 6.7 °F 3.4 °F 1017.8 in SSE 5.6 mph 5.6 mph 80 % 0.0 in 0.0 W/m2 CLR
05:56 6.7 °F 3.6 °F 1017.8 in SSE 5.6 mph 5.6 mph 81 % 0.0 in 0.0 W/m2 CLR
06:01 6.7 °F 3.6 °F 1017.8 in SE 3.2 mph 3.2 mph 81 % 0.0 in 0.0 W/m2 CLR
06:06 6.7 °F 3.6 °F 1017.8 in SE 11.3 mph 11.3 mph 81 % 0.0 in 0.0 W/m2 CLR
06:11 6.7 °F 3.6 °F 1017.8 in SE 6.4 mph 6.4 mph 81 % 0.0 in 0.0 W/m2 CLR
06:16 6.7 °F 3.6 °F 1017.8 in SE 5.6 mph 5.6 mph 81 % 0.0 in 0.0 W/m2 CLR
06:21 6.7 °F 3.6 °F 1017.8 in SSE 7.4 mph 7.4 mph 81 % 0.0 in 0.0 W/m2 CLR
06:26 6.1 °F 3.3 °F 1017.8 in South 9.3 mph 9.3 mph 82 % 0.0 in 0.0 W/m2 CLR
06:31 6.1 °F 3.1 °F 1017.8 in South 11.1 mph 11.1 mph 81 % 0.0 in 0.0 W/m2 CLR
06:36 6.1 °F 3.1 °F 1017.8 in South 11.3 mph 11.3 mph 81 % 0.0 in 0.0 W/m2 CLR
06:41 5.6 °F 2.4 °F 1017.8 in South 13.0 mph 13.0 mph 80 % 0.0 in 0.0 W/m2 CLR
06:46 5.6 °F 2.4 °F 1017.8 in South 12.9 mph 12.9 mph 80 % 0.0 in 0.0 W/m2 CLR
06:51 5.6 °F 2.4 °F 1017.8 in South 9.3 mph 9.3 mph 80 % 0.0 in 0.0 W/m2 CLR
06:56 5.6 °F 2.4 °F 1018.2 in SSE 9.3 mph 9.3 mph 80 % 0.0 in 0.0 W/m2 CLR
07:01 5.6 °F 2.4 °F 1018.2 in SSE 7.4 mph 7.4 mph 80 % 0.0 in 0.0 W/m2 CLR
07:06 5.6 °F 2.6 °F 1017.8 in SSE 9.7 mph 9.7 mph 81 % 0.0 in 0.0 W/m2 CLR
07:11 5.0 °F 2.2 °F 1018.2 in SSE 9.3 mph 9.3 mph 82 % 0.0 in 0.0 W/m2 CLR
07:16 5.0 °F 2.3 °F 1017.8 in South 6.4 mph 6.4 mph 83 % 0.0 in 0.0 W/m2 CLR
07:26 5.0 °F 2.0 °F 1018.2 in SSE 14.8 mph 14.8 mph 81 % 0.0 in 0.0 W/m2 CLR
07:31 5.0 °F 2.0 °F 1018.2 in SSE 5.6 mph 5.6 mph 81 % 0.0 in 0.0 W/m2 OVC
07:36 5.0 °F 2.0 °F 1018.2 in SE 5.6 mph 5.6 mph 81 % 0.0 in 0.0 W/m2 OVC
07:41 5.0 °F 2.2 °F 1018.2 in SE 5.6 mph 5.6 mph 82 % 0.0 in 0.0 W/m2 OVC
07:46 5.0 °F 2.2 °F 1018.2 in SE 7.4 mph 7.4 mph 82 % 0.0 in 7.0 W/m2 BKN
07:51 5.0 °F 2.3 °F 1018.2 in SSE 11.1 mph 11.1 mph 83 % 0.0 in 12.0 W/m2 BKN
07:56 5.0 °F 2.3 °F 1018.2 in SSE 9.3 mph 9.3 mph 83 % 0.0 in 16.0 W/m2 BKN
08:06 5.0 °F 2.3 °F 1018.2 in SE 9.7 mph 9.7 mph 83 % 0.0 in 21.0 W/m2 BKN
08:11 5.0 °F 2.3 °F 1018.5 in SSE 9.7 mph 9.7 mph 83 % 0.0 in 28.0 W/m2 BKN
08:16 5.0 °F 2.2 °F 1018.5 in SSE 9.3 mph 9.3 mph 82 % 0.0 in 47.0 W/m2 BKN
08:21 5.6 °F 2.6 °F 1018.5 in South 9.3 mph 9.3 mph 81 % 0.0 in 51.0 W/m2 SCT
08:26 5.6 °F 2.6 °F 1018.5 in SSE 11.1 mph 11.1 mph 81 % 0.0 in 42.0 W/m2 BKN
08:31 5.6 °F 2.4 °F 1018.5 in South 9.7 mph 9.7 mph 80 % 0.0 in 40.0 W/m2 BKN
08:36 6.1 °F 2.7 °F 1018.5 in SSE 9.7 mph 9.7 mph 79 % 0.0 in 47.0 W/m2 BKN
08:41 6.7 °F 3.3 °F 1018.5 in SSE 7.4 mph 7.4 mph 79 % 0.0 in 121.0 W/m2 CLR
08:46 7.2 °F 3.7 °F 1018.5 in SSE 11.1 mph 11.1 mph 78 % 0.0 in 120.0 W/m2 FEW
08:51 7.8 °F 4.2 °F 1018.5 in SSE 11.1 mph 11.1 mph 78 % 0.0 in 163.0 W/m2 CLR
08:56 8.3 °F 4.6 °F 1018.5 in South 7.4 mph 7.4 mph 77 % 0.0 in 165.0 W/m2 CLR
09:01 8.9 °F 5.1 °F 1018.5 in SSE 5.6 mph 5.6 mph 77 % 0.0 in 183.0 W/m2 CLR
09:06 9.4 °F 5.4 °F 1018.5 in SSE 5.6 mph 5.6 mph 76 % 0.0 in 229.0 W/m2 CLR
09:11 10.0 °F 5.8 °F 1018.8 in Calm     75 % 0.0 in 167.0 W/m2 CLR
09:16 10.6 °F 6.1 °F 1018.8 in Calm     74 % 0.0 in 155.0 W/m2 CLR
09:21 10.6 °F 5.5 °F 1018.8 in SSW 14.8 mph 14.8 mph 71 % 0.0 in 195.0 W/m2 CLR
09:26 10.6 °F 5.7 °F 1018.8 in SSW 16.7 mph 16.7 mph 72 % 0.0 in 67.0 W/m2 CLR
09:32 10.6 °F 5.7 °F 1018.8 in South 13.0 mph 13.0 mph 72 % 0.0 in 84.0 W/m2 FEW
09:37 10.6 °F 5.5 °F 1018.8 in SSW 12.9 mph 12.9 mph 71 % 0.0 in 121.0 W/m2 FEW
09:42 11.1 °F 6.1 °F 1018.8 in SSE 14.8 mph 14.8 mph 71 % 0.0 in 294.0 W/m2 CLR
09:47 11.1 °F 6.1 °F 1018.8 in SSW 13.0 mph 13.0 mph 71 % 0.0 in 248.0 W/m2 CLR
09:52 11.7 °F 6.6 °F 1019.2 in South 8.0 mph 8.0 mph 71 % 0.0 in 352.0 W/m2 CLR
09:57 11.7 °F 6.6 °F 1019.2 in SSW 13.0 mph 13.0 mph 71 % 0.0 in 367.0 W/m2 CLR
10:02 11.7 °F 6.4 °F 1019.2 in South 17.7 mph 17.7 mph 70 % 0.0 in 385.0 W/m2 CLR
10:07 12.2 °F 6.7 °F 1019.2 in South 13.0 mph 13.0 mph 69 % 0.0 in 399.0 W/m2 CLR
10:12 12.2 °F 6.9 °F 1019.2 in SSW 20.4 mph 20.4 mph 70 % 0.0 in 413.0 W/m2 CLR
10:17 12.8 °F 7.4 °F 1019.2 in SW 18.5 mph 18.5 mph 70 % 0.0 in 425.0 W/m2 CLR
10:22 12.8 °F 7.4 °F 1019.5 in SSW 16.7 mph 16.7 mph 70 % 0.0 in 443.0 W/m2 CLR
10:27 12.8 °F 7.0 °F 1019.5 in WSW 19.3 mph 19.3 mph 68 % 0.0 in 459.0 W/m2 CLR
10:32 13.3 °F 7.6 °F 1019.5 in SW 24.1 mph 24.1 mph 68 % 0.0 in 473.0 W/m2 CLR
10:37 13.3 °F 7.8 °F 1019.5 in SW 18.5 mph 18.5 mph 69 % 0.0 in 487.0 W/m2 CLR
10:42 13.3 °F 7.6 °F 1019.5 in SW 18.5 mph 18.5 mph 68 % 0.0 in 508.0 W/m2 CLR
10:47 13.3 °F 7.6 °F 1019.5 in SW 18.5 mph 18.5 mph 68 % 0.0 in 527.0 W/m2 CLR
10:57 13.9 °F 8.3 °F 1019.5 in SW 20.4 mph 20.4 mph 69 % 0.0 in 550.0 W/m2 CLR
11:02 13.9 °F 7.8 °F 1019.5 in WSW 18.5 mph 18.5 mph 67 % 0.0 in 557.0 W/m2 CLR
11:07 13.9 °F 7.8 °F 1019.2 in WSW 18.5 mph 18.5 mph 67 % 0.0 in 573.0 W/m2 CLR
11:12 14.4 °F 8.2 °F 1019.2 in SW 24.1 mph 24.1 mph 66 % 0.0 in 585.0 W/m2 CLR
11:17 14.4 °F 8.4 °F 1019.2 in SSW 22.2 mph 22.2 mph 67 % 0.0 in 594.0 W/m2 CLR
11:22 14.4 °F 8.4 °F 1019.2 in SW 20.4 mph 20.4 mph 67 % 0.0 in 605.0 W/m2 CLR
11:27 14.4 °F 7.9 °F 1019.2 in SSW 18.5 mph 18.5 mph 65 % 0.0 in 619.0 W/m2 CLR
11:32 15.0 °F 8.4 °F 1019.2 in WSW 13.0 mph 13.0 mph 65 % 0.0 in 628.0 W/m2 CLR
11:37 15.0 °F 8.0 °F 1019.2 in SSW 3.7 mph 3.7 mph 63 % 0.0 in 640.0 W/m2 CLR
11:42 15.6 °F 9.0 °F 1019.2 in SW 18.5 mph 18.5 mph 65 % 0.0 in 650.0 W/m2 CLR
11:47 15.0 °F 8.4 °F 1019.2 in SSW 25.9 mph 25.9 mph 65 % 0.0 in 657.0 W/m2 CLR
11:52 15.0 °F 8.0 °F 1018.8 in SSW 22.2 mph 22.2 mph 63 % 0.0 in 668.0 W/m2 CLR
11:57 15.6 °F 8.6 °F 1018.8 in SSW 22.5 mph 22.5 mph 63 % 0.0 in 677.0 W/m2 CLR
12:02 15.6 °F 8.3 °F 1018.8 in South 20.4 mph 20.4 mph 62 % 0.0 in 689.0 W/m2 CLR
12:07 16.1 °F 9.8 °F 1018.8 in SSW 20.4 mph 20.4 mph 66 % 0.0 in 703.0 W/m2 CLR
12:12 16.1 °F 9.5 °F 1018.8 in SW 13.0 mph 13.0 mph 65 % 0.0 in 708.0 W/m2 CLR
12:17 16.7 °F 9.3 °F 1018.8 in WSW 16.7 mph 16.7 mph 62 % 0.0 in 714.0 W/m2 CLR
12:22 16.1 °F 8.8 °F 1018.5 in Calm     62 % 0.0 in 759.0 W/m2 CLR
12:27 16.7 °F 8.9 °F 1018.5 in SW 18.5 mph 18.5 mph 60 % 0.0 in 738.0 W/m2 CLR
12:32 17.2 °F 9.4 °F 1018.5 in SW 24.1 mph 24.1 mph 60 % 0.0 in 738.0 W/m2 CLR
12:37 17.2 °F 9.9 °F 1018.5 in SW 18.5 mph 18.5 mph 62 % 0.0 in 731.0 W/m2 CLR
12:42 17.2 °F 9.4 °F 1018.5 in SSW 33.3 mph 33.3 mph 60 % 0.0 in 788.0 W/m2 CLR
12:47 17.2 °F 8.9 °F 1018.5 in SSW 18.5 mph 18.5 mph 58 % 0.0 in 786.0 W/m2 CLR
12:52 17.2 °F 9.4 °F 1018.5 in WSW 18.5 mph 18.5 mph 60 % 0.0 in 779.0 W/m2 CLR
12:57 17.8 °F 9.7 °F 1018.5 in SSW 24.1 mph 24.1 mph 59 % 0.0 in 821.0 W/m2 CLR
13:02 17.8 °F 9.4 °F 1018.5 in SW 27.8 mph 27.8 mph 58 % 0.0 in 821.0 W/m2 CLR
13:07 17.2 °F 9.1 °F 1018.2 in SW 16.7 mph 16.7 mph 59 % 0.0 in 283.0 W/m2 CLR
13:12 17.2 °F 8.6 °F 1018.2 in WSW 18.5 mph 18.5 mph 57 % 0.0 in 179.0 W/m2 CLR
13:17 17.2 °F 8.4 °F 1018.5 in WSW 18.5 mph 18.5 mph 56 % 0.0 in 802.0 W/m2 CLR
13:22 17.2 °F 8.9 °F 1018.2 in West 18.5 mph 18.5 mph 58 % 0.0 in 803.0 W/m2 CLR
13:27 17.8 °F 8.3 °F 1018.2 in SSW 14.8 mph 14.8 mph 54 % 0.0 in 789.0 W/m2 CLR
13:32 17.8 °F 8.1 °F 1018.2 in SW 31.5 mph 31.5 mph 53 % 0.0 in 793.0 W/m2 CLR
13:37 18.3 °F 8.6 °F 1018.2 in South 20.4 mph 20.4 mph 53 % 0.0 in 791.0 W/m2 CLR
13:42 18.3 °F 8.6 °F 1018.2 in West 20.4 mph 20.4 mph 53 % 0.0 in 791.0 W/m2 CLR
13:47 18.3 °F 8.3 °F 1017.8 in SSW 18.5 mph 18.5 mph 52 % 0.0 in 793.0 W/m2 CLR
13:52 17.8 °F 7.8 °F 1017.8 in SW 24.1 mph 24.1 mph 52 % 0.0 in 796.0 W/m2 CLR
13:57 18.3 °F 7.7 °F 1017.8 in West 24.1 mph 24.1 mph 50 % 0.0 in 800.0 W/m2 CLR
14:02 18.9 °F 8.2 °F 1017.8 in South 20.4 mph 20.4 mph 50 % 0.0 in 800.0 W/m2 CLR
14:07 18.3 °F 7.4 °F 1017.5 in WSW 18.5 mph 18.5 mph 49 % 0.0 in 800.0 W/m2 CLR
14:12 18.9 °F 7.6 °F 1017.5 in SW 18.5 mph 18.5 mph 48 % 0.0 in 800.0 W/m2 CLR
14:17 18.9 °F 7.3 °F 1017.5 in SW 18.5 mph 18.5 mph 47 % 0.0 in 777.0 W/m2 CLR
14:18 18.9 °F 7.3 °F 1017.5 in WSW 18.5 mph 18.5 mph 47 % 0.0 in 777.0 W/m2 CLR
14:23 18.9 °F 8.2 °F 1017.5 in WSW 18.5 mph 18.5 mph 50 % 0.0 in 791.0 W/m2 CLR
14:28 18.9 °F 7.6 °F 1017.5 in SSW 24.1 mph 24.1 mph 48 % 0.0 in 793.0 W/m2 CLR
14:33 19.4 °F 7.2 °F 1017.5 in South 20.4 mph 20.4 mph 45 % 0.0 in 803.0 W/m2 CLR
14:38 18.9 °F 7.3 °F 1017.5 in SW 20.4 mph 20.4 mph 47 % 0.0 in 687.0 W/m2 CLR
14:43 18.9 °F 7.0 °F 1017.5 in West 24.1 mph 24.1 mph 46 % 0.0 in 786.0 W/m2 CLR
14:48 19.4 °F 7.5 °F 1017.5 in WNW 20.4 mph 20.4 mph 46 % 0.0 in 793.0 W/m2 CLR
14:53 18.9 °F 6.4 °F 1017.2 in West 22.2 mph 22.2 mph 44 % 0.0 in 770.0 W/m2 CLR
14:58 18.9 °F 7.3 °F 1017.5 in WSW 27.8 mph 27.8 mph 47 % 0.0 in 763.0 W/m2 CLR
15:03 19.4 °F 7.2 °F 1017.2 in WSW 22.2 mph 22.2 mph 45 % 0.0 in 758.0 W/m2 CLR
15:08 18.9 °F 6.7 °F 1017.2 in SW 22.2 mph 22.2 mph 45 % 0.0 in 752.0 W/m2 CLR
15:13 18.9 °F 7.0 °F 1017.2 in SW 27.8 mph 27.8 mph 46 % 0.0 in 747.0 W/m2 CLR
15:18 19.4 °F 7.2 °F 1017.2 in WSW 24.1 mph 24.1 mph 45 % 0.0 in 737.0 W/m2 CLR
15:23 19.4 °F 6.9 °F 1017.2 in WSW 18.5 mph 18.5 mph 44 % 0.0 in 731.0 W/m2 CLR
15:28 20.0 °F 7.1 °F 1017.2 in SW 24.1 mph 24.1 mph 43 % 0.0 in 724.0 W/m2 CLR
15:33 19.4 °F 6.9 °F 1017.2 in SW 22.5 mph 22.5 mph 44 % 0.0 in 719.0 W/m2 CLR
15:38 19.4 °F 6.9 °F 1016.8 in WSW 20.9 mph 20.9 mph 44 % 0.0 in 712.0 W/m2 CLR
15:43 20.0 °F 7.1 °F 1016.8 in WSW 27.8 mph 27.8 mph 43 % 0.0 in 705.0 W/m2 CLR
15:48 20.0 °F 8.0 °F 1016.8 in West 22.2 mph 22.2 mph 46 % 0.0 in 673.0 W/m2 CLR
15:53 19.4 °F 7.2 °F 1016.8 in SW 18.5 mph 18.5 mph 45 % 0.0 in 661.0 W/m2 CLR
15:58 19.4 °F 7.2 °F 1016.8 in SW 25.9 mph 25.9 mph 45 % 0.0 in 679.0 W/m2 CLR
16:03 20.0 °F 7.4 °F 1016.8 in SW 20.9 mph 20.9 mph 44 % 0.0 in 670.0 W/m2 CLR
16:08 20.0 °F 7.4 °F 1016.8 in WSW 18.5 mph 18.5 mph 44 % 0.0 in 666.0 W/m2 CLR
16:13 18.9 °F 6.4 °F 1016.8 in WSW 20.4 mph 20.4 mph 44 % 0.0 in 666.0 W/m2 CLR
16:18 19.4 °F 5.8 °F 1016.8 in West 24.1 mph 24.1 mph 41 % 0.0 in 606.0 W/m2 CLR
16:23 19.4 °F 6.6 °F 1016.8 in WSW 20.9 mph 20.9 mph 43 % 0.0 in 643.0 W/m2 CLR
16:28 19.4 °F 6.9 °F 1016.5 in WSW 24.1 mph 24.1 mph 44 % 0.0 in 541.0 W/m2 CLR
16:33 19.4 °F 7.2 °F 1016.5 in WSW 22.2 mph 22.2 mph 45 % 0.0 in 638.0 W/m2 CLR
16:38 19.4 °F 6.2 °F 1016.5 in WSW 24.1 mph 24.1 mph 42 % 0.0 in 613.0 W/m2 CLR
16:43 20.0 °F 7.1 °F 1016.5 in SW 18.5 mph 18.5 mph 43 % 0.0 in 519.0 W/m2 CLR
16:48 20.0 °F 6.3 °F 1016.5 in WSW 22.2 mph 22.2 mph 41 % 0.0 in 541.0 W/m2 CLR
16:53 19.4 °F 6.6 °F 1016.5 in WSW 24.1 mph 24.1 mph 43 % 0.0 in 462.0 W/m2 CLR
16:58 19.4 °F 6.2 °F 1016.5 in West 20.4 mph 20.4 mph 42 % 0.0 in 279.0 W/m2 CLR
17:03 18.3 °F 5.2 °F 1016.5 in WNW 27.8 mph 27.8 mph 42 % 0.0 in 373.0 W/m2 CLR
17:08 18.3 °F 5.8 °F 1016.5 in WSW 16.7 mph 16.7 mph 44 % 0.0 in 336.0 W/m2 CLR
17:13 18.9 °F 6.1 °F 1016.5 in WSW 24.1 mph 24.1 mph 43 % 0.0 in 566.0 W/m2 CLR
17:18 18.3 °F 5.8 °F 1016.5 in WSW 25.7 mph 25.7 mph 44 % 0.0 in 301.0 W/m2 CLR
17:23 18.3 °F 6.2 °F 1016.5 in WNW 18.5 mph 18.5 mph 45 % 0.0 in 432.0 W/m2 CLR
17:28 18.9 °F 6.4 °F 1016.5 in SW 14.8 mph 14.8 mph 44 % 0.0 in 396.0 W/m2 CLR
17:33 18.9 °F 6.4 °F 1016.5 in West 19.3 mph 19.3 mph 44 % 0.0 in 311.0 W/m2 CLR
17:38 18.9 °F 6.1 °F 1016.5 in WSW 18.5 mph 18.5 mph 43 % 0.0 in 434.0 W/m2 CLR
17:43 18.9 °F 6.1 °F 1016.5 in West 16.1 mph 16.1 mph 43 % 0.0 in 253.0 W/m2 CLR
17:48 18.9 °F 6.1 °F 1016.5 in West 24.1 mph 24.1 mph 43 % 0.0 in 422.0 W/m2 CLR
17:53 18.9 °F 6.1 °F 1016.5 in West 20.4 mph 20.4 mph 43 % 0.0 in 390.0 W/m2 CLR
17:58 18.9 °F 6.1 °F 1016.5 in West 17.7 mph 17.7 mph 43 % 0.0 in 366.0 W/m2 CLR
18:03 19.4 °F 5.8 °F 1016.5 in West 18.5 mph 18.5 mph 41 % 0.0 in 343.0 W/m2 CLR
18:08 18.9 °F 5.3 °F 1016.5 in West 25.9 mph 25.9 mph 41 % 0.0 in 323.0 W/m2 CLR
18:13 18.9 °F 5.3 °F 1016.5 in WSW 22.2 mph 22.2 mph 41 % 0.0 in 306.0 W/m2 CLR
18:18 18.9 °F 5.0 °F 1016.5 in WSW 22.2 mph 22.2 mph 40 % 0.0 in 290.0 W/m2 CLR
18:23 18.9 °F 5.0 °F 1016.5 in WSW 18.5 mph 18.5 mph 40 % 0.0 in 274.0 W/m2 CLR
18:28 18.9 °F 5.3 °F 1016.5 in WSW 22.2 mph 22.2 mph 41 % 0.0 in 255.0 W/m2 CLR
18:34 18.3 °F 4.5 °F 1016.5 in WSW 18.5 mph 18.5 mph 40 % 0.0 in 236.0 W/m2 CLR
18:39 18.3 °F 4.8 °F 1016.5 in West 16.7 mph 16.7 mph 41 % 0.0 in 220.0 W/m2 CLR
18:44 18.3 °F 4.5 °F 1016.5 in WSW 22.2 mph 22.2 mph 40 % 0.0 in 199.0 W/m2 CLR
18:49 18.3 °F 5.5 °F 1016.8 in WSW 17.7 mph 17.7 mph 43 % 0.0 in 181.0 W/m2 CLR
18:54 18.3 °F 4.8 °F 1016.8 in West 24.1 mph 24.1 mph 41 % 0.0 in 160.0 W/m2 CLR
19:04 18.3 °F 4.8 °F 1016.8 in West 16.7 mph 16.7 mph 41 % 0.0 in 125.0 W/m2 CLR
19:09 18.3 °F 4.8 °F 1016.8 in SW 18.5 mph 18.5 mph 41 % 0.0 in 113.0 W/m2 CLR
19:14 18.3 °F 4.8 °F 1017.2 in WSW 18.5 mph 18.5 mph 41 % 0.0 in 90.0 W/m2 CLR
19:19 17.8 °F 4.7 °F 1017.2 in WSW 14.8 mph 14.8 mph 42 % 0.0 in 72.0 W/m2 FEW
19:24 17.8 °F 4.7 °F 1017.2 in WSW 20.9 mph 20.9 mph 42 % 0.0 in 53.0 W/m2 SCT
19:29 17.8 °F 4.7 °F 1017.2 in SW 18.5 mph 18.5 mph 42 % 0.0 in 46.0 W/m2 SCT
19:34 17.8 °F 4.7 °F 1017.2 in West 22.2 mph 22.2 mph 42 % 0.0 in 33.0 W/m2 BKN
19:39 17.2 °F 4.5 °F 1017.2 in WSW 19.3 mph 19.3 mph 43 % 0.0 in 25.0 W/m2 BKN
19:44 17.2 °F 4.8 °F 1017.2 in WSW 13.0 mph 13.0 mph 44 % 0.0 in 18.0 W/m2 BKN
19:54 16.7 °F 5.0 °F 1017.2 in WSW 1.9 mph   46 % 0.0 in 12.0 W/m2 BKN
19:59 16.7 °F 5.0 °F 1017.5 in WSW 7.4 mph 7.4 mph 46 % 0.0 in 9.0 W/m2 BKN
20:04 16.1 °F 4.8 °F 1017.5 in SW 1.9 mph 1.9 mph 47 % 0.0 in 7.0 W/m2 BKN
20:09 15.0 °F 4.1 °F 1017.5 in SW 13.0 mph 13.0 mph 48 % 0.0 in 0.0 W/m2 OVC
20:14 14.4 °F 3.6 °F 1017.5 in WSW 13.0 mph 13.0 mph 48 % 0.0 in 0.0 W/m2 OVC
20:19 13.9 °F 3.1 °F 1017.5 in SW 3.7 mph 3.7 mph 48 % 0.0 in 0.0 W/m2 CLR
20:24 13.3 °F 2.8 °F 1017.8 in SW 3.7 mph 3.7 mph 49 % 0.0 in 0.0 W/m2 CLR
20:29 13.3 °F 2.8 °F 1017.8 in Calm     49 % 0.0 in 0.0 W/m2 CLR
20:34 12.8 °F 2.6 °F 1017.8 in Calm     50 % 0.0 in 0.0 W/m2 CLR
20:39 12.8 °F 2.3 °F 1017.8 in Calm     49 % 0.0 in 0.0 W/m2 CLR
20:44 12.2 °F 1.8 °F 1017.8 in Calm     49 % 0.0 in 0.0 W/m2 CLR
20:49 12.2 °F 2.4 °F 1018.2 in Calm     51 % 0.0 in 0.0 W/m2 CLR
20:54 11.7 °F 2.1 °F 1018.2 in SSW 5.6 mph 5.6 mph 52 % 0.0 in 0.0 W/m2 CLR
20:59 11.7 °F 2.1 °F 1018.5 in Calm     52 % 0.0 in 0.0 W/m2 CLR
21:04 11.7 °F 2.1 °F 1018.5 in Calm     52 % 0.0 in 0.0 W/m2 CLR
21:09 11.7 °F 2.1 °F 1018.5 in Calm     52 % 0.0 in 0.0 W/m2 CLR
21:14 11.7 °F 2.4 °F 1018.8 in WSW 9.3 mph 9.3 mph 53 % 0.0 in 0.0 W/m2 CLR
21:19 11.7 °F 2.7 °F 1018.8 in WSW 14.8 mph 14.8 mph 54 % 0.0 in 0.0 W/m2 CLR
21:24 12.2 °F 2.9 °F 1018.8 in West 18.5 mph 18.5 mph 53 % 0.0 in 0.0 W/m2 CLR
21:29 12.8 °F 3.4 °F 1019.2 in SW 13.0 mph 13.0 mph 53 % 0.0 in 0.0 W/m2 CLR
21:34 12.8 °F 3.4 °F 1019.2 in SW 1.6 mph 1.6 mph 53 % 0.0 in 0.0 W/m2 CLR
21:39 12.2 °F 3.2 °F 1019.2 in SW 13.0 mph 13.0 mph 54 % 0.0 in 0.0 W/m2 CLR
21:44 11.7 °F 2.7 °F 1019.2 in SW 4.8 mph 4.8 mph 54 % 0.0 in 0.0 W/m2 CLR
21:49 11.7 °F 2.9 °F 1019.5 in SW 9.7 mph 9.7 mph 55 % 0.0 in 0.0 W/m2 CLR
21:54 11.7 °F 3.2 °F 1019.5 in SW 9.7 mph 9.7 mph 56 % 0.0 in 0.0 W/m2 CLR
21:59 11.7 °F 3.2 °F 1019.5 in SW 13.0 mph 13.0 mph 56 % 0.0 in 0.0 W/m2 CLR
22:04 11.7 °F 3.2 °F 1019.9 in SW 14.8 mph 14.8 mph 56 % 0.0 in 0.0 W/m2 CLR
22:09 12.2 °F 3.7 °F 1019.9 in SW 9.3 mph 9.3 mph 56 % 0.0 in 0.0 W/m2 CLR
22:14 12.2 °F 3.9 °F 1019.9 in SW 11.1 mph 11.1 mph 57 % 0.0 in 0.0 W/m2 CLR
22:19 11.7 °F 3.4 °F 1019.9 in SW 11.1 mph 11.1 mph 57 % 0.0 in 0.0 W/m2 CLR
22:24 11.7 °F 3.7 °F 1019.9 in SW 5.6 mph 5.6 mph 58 % 0.0 in 0.0 W/m2 CLR
22:29 11.7 °F 3.7 °F 1019.9 in SW 9.7 mph 9.7 mph 58 % 0.0 in 0.0 W/m2 CLR
22:34 11.1 °F 3.2 °F 1019.9 in SSW 16.7 mph 16.7 mph 58 % 0.0 in 0.0 W/m2 CLR
22:39 11.1 °F 2.9 °F 1019.9 in SSW 16.7 mph 16.7 mph 57 % 0.0 in 0.0 W/m2 CLR
22:44 11.1 °F 2.7 °F 1019.9 in SSW 14.8 mph 14.8 mph 56 % 0.0 in 0.0 W/m2 CLR
22:49 11.1 °F 2.4 °F 1019.9 in SSW 14.8 mph 14.8 mph 55 % 0.0 in 0.0 W/m2 CLR
22:59 11.1 °F 2.7 °F 1019.9 in South 14.8 mph 14.8 mph 56 % 0.0 in 0.0 W/m2 CLR
23:04 11.1 °F 2.7 °F 1020.2 in SSW 16.7 mph 16.7 mph 56 % 0.0 in 0.0 W/m2 CLR
23:09 11.1 °F 2.9 °F 1020.2 in SSW 14.8 mph 14.8 mph 57 % 0.0 in 0.0 W/m2 CLR
23:14 11.1 °F 2.9 °F 1020.2 in SSW 9.3 mph 9.3 mph 57 % 0.0 in 0.0 W/m2 CLR
23:19 10.6 °F 2.6 °F 1020.2 in South 11.1 mph 11.1 mph 58 % 0.0 in 0.0 W/m2 CLR
23:25 10.6 °F 2.6 °F 1020.2 in South 14.8 mph 14.8 mph 58 % 0.0 in 0.0 W/m2 CLR
23:29 10.0 °F 2.3 °F 1020.5 in South 11.3 mph 11.3 mph 59 % 0.0 in 0.0 W/m2 CLR
23:35 10.0 °F 2.3 °F 1020.5 in SSW 11.3 mph 11.3 mph 59 % 0.0 in 0.0 W/m2 CLR
23:40 9.4 °F 2.1 °F 1020.5 in SSW 11.1 mph 11.1 mph 60 % 0.0 in 0.0 W/m2 CLR
23:45 9.4 °F 2.1 °F 1020.5 in South 9.3 mph 9.3 mph 60 % 0.0 in 0.0 W/m2 CLR
23:50 10.0 °F 2.8 °F 1020.5 in South 16.7 mph 16.7 mph 61 % 0.0 in 0.0 W/m2 CLR
23:55 10.0 °F 2.8 °F 1020.5 in South 16.7 mph 16.7 mph 61 % 0.0 in 0.0 W/m2 CLR
Lo Temps de Massalio
Compliments of Weather Underground - 1.25 mb